createdAt,value
2018-02-03T00:00:35.646Z,87.84
2018-02-03T00:03:03.111Z,87.97
2018-02-03T00:05:30.973Z,88.12
2018-02-03T00:07:58.404Z,88.37
2018-02-03T00:10:25.843Z,87.83
2018-02-03T00:12:53.300Z,88.15
2018-02-03T00:15:20.822Z,87.94
2018-02-03T00:17:48.464Z,88.34
2018-02-03T00:20:15.901Z,88.31
2018-02-03T00:22:43.337Z,88.22
2018-02-03T00:25:10.821Z,88.06
2018-02-03T00:27:38.257Z,88.36
2018-02-03T00:30:05.952Z,88.51
2018-02-03T00:32:33.408Z,88.59
2018-02-03T00:35:00.842Z,89.19
2018-02-03T00:37:28.296Z,88.98
2018-02-03T00:39:55.736Z,88.62
2018-02-03T00:42:23.448Z,88.58
2018-02-03T00:44:50.881Z,88.20
2018-02-03T00:47:18.312Z,87.78
2018-02-03T00:49:45.768Z,88.29
2018-02-03T00:52:13.201Z,88.56
2018-02-03T00:54:40.824Z,88.21
2018-02-03T00:57:08.261Z,88.46
2018-02-03T00:59:35.692Z,89.42
2018-02-03T01:02:03.157Z,89.73
2018-02-03T01:04:30.587Z,90.06
2018-02-03T01:06:58.581Z,90.01
2018-02-03T01:09:26.021Z,89.58
2018-02-03T01:11:53.456Z,88.79
2018-02-03T01:14:20.908Z,88.95
2018-02-03T01:16:48.355Z,89.07
2018-02-03T01:19:16.185Z,89.41
2018-02-03T01:21:43.621Z,88.87
2018-02-03T01:24:11.054Z,89.50
2018-02-03T01:26:38.532Z,88.96
2018-02-03T01:29:05.964Z,88.97
2018-02-03T01:31:33.604Z,89.00
2018-02-03T01:34:01.070Z,88.79
2018-02-03T01:36:28.517Z,89.07
2018-02-03T01:38:55.974Z,89.03
2018-02-03T01:41:23.409Z,88.56
2018-02-03T01:43:50.908Z,87.93
2018-02-03T01:46:18.377Z,87.24
2018-02-03T01:48:45.808Z,87.97
2018-02-03T01:51:13.261Z,87.36
2018-02-03T01:53:40.736Z,88.25
2018-02-03T01:56:08.377Z,88.37
2018-02-03T01:58:35.812Z,89.48
2018-02-03T02:01:03.244Z,89.46
2018-02-03T02:03:30.709Z,89.54
2018-02-03T02:05:58.141Z,89.15
2018-02-03T02:08:25.744Z,89.79
2018-02-03T02:10:53.181Z,88.84
2018-02-03T02:13:20.641Z,88.51
2018-02-03T02:15:48.101Z,87.42
2018-02-03T02:18:15.540Z,86.74
2018-02-03T02:20:43.030Z,86.08
2018-02-03T02:23:10.463Z,87.09
2018-02-03T02:25:37.912Z,87.42
2018-02-03T02:28:05.368Z,88.00
2018-02-03T02:30:32.806Z,88.41
2018-02-03T02:33:00.273Z,88.00
2018-02-03T02:35:27.719Z,87.89
2018-02-03T02:37:55.184Z,87.77
2018-02-03T02:40:22.666Z,88.09
2018-02-03T02:42:50.104Z,88.03
2018-02-03T02:45:17.590Z,88.36
2018-02-03T02:47:45.025Z,89.57
2018-02-03T02:50:12.457Z,88.70
2018-02-03T02:52:39.949Z,88.62
2018-02-03T02:55:07.385Z,88.18
2018-02-03T02:57:35.182Z,88.81
2018-02-03T03:00:02.619Z,88.16
2018-02-03T03:02:30.059Z,88.66
2018-02-03T03:04:57.528Z,88.81
2018-02-03T03:07:25.024Z,89.13
2018-02-03T03:09:52.480Z,89.60
2018-02-03T03:12:19.914Z,89.40
2018-02-03T03:14:47.344Z,88.91
2018-02-03T03:17:14.805Z,88.41
2018-02-03T03:19:42.241Z,87.34
2018-02-03T03:22:09.954Z,86.91
2018-02-03T03:24:37.393Z,87.83
2018-02-03T03:27:04.828Z,87.66
2018-02-03T03:29:32.296Z,88.08
2018-02-03T03:31:59.733Z,88.58
2018-02-03T03:34:27.442Z,88.40
2018-02-03T03:36:54.890Z,87.38
2018-02-03T03:39:22.332Z,87.30
2018-02-03T03:41:49.801Z,87.10
2018-02-03T03:44:17.268Z,87.76
2018-02-03T03:46:44.961Z,87.16
2018-02-03T03:49:12.398Z,86.96
2018-02-03T03:51:39.837Z,86.82
2018-02-03T03:54:07.289Z,86.95
2018-02-03T03:56:34.736Z,87.14
2018-02-03T03:59:02.417Z,87.56
2018-02-03T04:01:29.853Z,87.95
2018-02-03T04:03:57.289Z,87.70
2018-02-03T04:06:24.752Z,88.15
2018-02-03T04:08:52.193Z,88.43
2018-02-03T04:11:19.813Z,88.20
2018-02-03T04:13:47.257Z,88.49
2018-02-03T04:16:14.692Z,88.39
2018-02-03T04:18:42.177Z,88.53
2018-02-03T04:21:09.612Z,88.54
2018-02-03T04:23:37.184Z,88.79
2018-02-03T04:26:04.612Z,88.45
2018-02-03T04:28:32.056Z,88.37
2018-02-03T04:30:59.532Z,87.43
2018-02-03T04:33:26.973Z,87.38
2018-02-03T04:35:54.458Z,87.12
2018-02-03T04:38:21.889Z,87.38
2018-02-03T04:40:49.330Z,86.78
2018-02-03T04:43:16.797Z,86.81
2018-02-03T04:45:44.236Z,86.92
2018-02-03T04:48:11.852Z,86.63
2018-02-03T04:50:39.336Z,87.36
2018-02-03T04:53:06.770Z,87.75
2018-02-03T04:55:34.226Z,87.22
2018-02-03T04:58:01.665Z,87.49
2018-02-03T05:00:29.541Z,87.14
2018-02-03T05:02:56.981Z,87.27
2018-02-03T05:05:24.413Z,87.28
2018-02-03T05:07:52.044Z,86.36
2018-02-03T05:10:19.479Z,85.55
2018-02-03T05:12:46.961Z,85.90
2018-02-03T05:15:14.401Z,86.54
2018-02-03T05:17:41.837Z,86.23
2018-02-03T05:20:09.293Z,86.44
2018-02-03T05:22:37.029Z,86.23
2018-02-03T05:25:04.624Z,85.95
2018-02-03T05:27:32.080Z,86.08
2018-02-03T05:29:59.545Z,86.52
2018-02-03T05:32:26.997Z,86.17
2018-02-03T05:34:54.433Z,86.79
2018-02-03T05:37:22.111Z,86.92
2018-02-03T05:39:49.545Z,87.45
2018-02-03T05:42:16.996Z,87.83
2018-02-03T05:44:44.449Z,87.98
2018-02-03T05:47:11.887Z,88.47
2018-02-03T05:49:39.608Z,86.89
2018-02-03T05:52:07.053Z,86.11
2018-02-03T05:54:34.502Z,85.04
2018-02-03T05:57:01.971Z,86.82
2018-02-03T05:59:29.413Z,86.59
2018-02-03T06:01:56.898Z,87.62
2018-02-03T06:04:24.339Z,88.28
2018-02-03T06:06:51.774Z,88.17
2018-02-03T06:09:19.229Z,90.06
2018-02-03T06:11:46.689Z,90.82
2018-02-03T06:14:14.365Z,91.57
2018-02-03T06:16:41.828Z,92.50
2018-02-03T06:19:09.257Z,92.68
2018-02-03T06:21:36.713Z,92.53
2018-02-03T06:24:04.152Z,92.42
2018-02-03T06:26:31.755Z,92.52
2018-02-03T06:28:59.236Z,92.52
2018-02-03T06:31:26.673Z,92.17
2018-02-03T06:33:54.129Z,92.82
2018-02-03T06:36:21.565Z,93.13
2018-02-03T06:38:49.045Z,94.11
2018-02-03T06:41:16.488Z,94.89
2018-02-03T06:43:43.953Z,95.09
2018-02-03T06:46:11.418Z,94.35
2018-02-03T06:48:38.921Z,95.14
2018-02-03T06:51:06.357Z,94.90
2018-02-03T06:53:33.805Z,94.50
2018-02-03T06:56:01.245Z,94.51
2018-02-03T06:58:28.705Z,94.47
2018-02-03T07:00:56.149Z,95.10
2018-02-03T07:03:23.634Z,95.11
2018-02-03T07:05:51.085Z,95.54
2018-02-03T07:08:18.536Z,95.22
2018-02-03T07:10:46.001Z,94.81
2018-02-03T07:13:13.441Z,95.39
2018-02-03T07:15:40.944Z,95.11
2018-02-03T07:18:08.393Z,93.85
2018-02-03T07:20:35.833Z,94.44
2018-02-03T07:23:03.337Z,93.86
2018-02-03T07:25:30.788Z,92.95
2018-02-03T07:27:58.457Z,91.82
2018-02-03T07:30:25.954Z,92.33
2018-02-03T07:32:53.393Z,93.06
2018-02-03T07:35:20.856Z,93.84
2018-02-03T07:37:48.301Z,94.21
2018-02-03T07:40:15.897Z,94.06
2018-02-03T07:42:43.369Z,94.20
2018-02-03T07:45:10.825Z,94.25
2018-02-03T07:47:38.341Z,93.89
2018-02-03T07:50:05.838Z,93.81
2018-02-03T07:52:33.448Z,93.24
2018-02-03T07:55:00.905Z,93.52
2018-02-03T07:57:28.422Z,93.48
2018-02-03T07:59:55.900Z,93.29
2018-02-03T08:02:23.341Z,94.13
2018-02-03T08:04:50.834Z,93.79
2018-02-03T08:07:18.273Z,93.83
2018-02-03T08:09:45.760Z,93.96
2018-02-03T08:12:13.256Z,94.69
2018-02-03T08:14:40.701Z,94.91
2018-02-03T08:17:08.453Z,95.43
2018-02-03T08:19:35.909Z,94.93
2018-02-03T08:22:03.345Z,94.31
2018-02-03T08:24:30.817Z,94.33
2018-02-03T08:26:58.304Z,94.18
2018-02-03T08:29:25.923Z,93.51
2018-02-03T08:31:53.368Z,92.65
2018-02-03T08:34:20.806Z,91.99
2018-02-03T08:36:48.273Z,92.20
2018-02-03T08:39:15.721Z,92.11
2018-02-03T08:41:43.189Z,93.03
2018-02-03T08:44:10.660Z,92.42
2018-02-03T08:46:38.106Z,93.00
2018-02-03T08:49:05.615Z,92.37
2018-02-03T08:51:33.049Z,91.69
2018-02-03T08:54:00.545Z,91.90
2018-02-03T08:56:28.011Z,91.40
2018-02-03T08:58:55.497Z,91.52
2018-02-03T09:01:22.964Z,91.75
2018-02-03T09:03:50.413Z,91.66
2018-02-03T09:06:17.891Z,91.42
2018-02-03T09:08:45.369Z,91.46
2018-02-03T09:11:12.822Z,90.65
2018-02-03T09:13:40.289Z,90.54
2018-02-03T09:16:07.738Z,90.34
2018-02-03T09:18:35.188Z,90.08
2018-02-03T09:21:02.664Z,88.92
2018-02-03T09:23:30.109Z,88.82
2018-02-03T09:25:57.573Z,88.68
2018-02-03T09:28:25.132Z,89.16
2018-02-03T09:30:52.585Z,88.59
2018-02-03T09:33:20.038Z,87.35
2018-02-03T09:35:47.500Z,84.75
2018-02-03T09:38:14.937Z,84.22
2018-02-03T09:40:42.377Z,84.66
2018-02-03T09:43:09.841Z,82.18
2018-02-03T09:45:37.274Z,79.46
2018-02-03T09:48:04.726Z,79.26
2018-02-03T09:50:32.198Z,79.69
2018-02-03T09:52:59.638Z,79.20
2018-02-03T09:55:27.073Z,78.54
2018-02-03T09:57:54.527Z,77.63
2018-02-03T10:00:21.964Z,77.79
2018-02-03T10:02:49.397Z,77.58
2018-02-03T10:05:16.853Z,75.38
2018-02-03T10:07:44.293Z,75.20
2018-02-03T10:10:11.732Z,75.53
2018-02-03T10:12:39.391Z,75.55
2018-02-03T10:15:06.873Z,75.92
2018-02-03T10:17:34.309Z,75.96
2018-02-03T10:20:02.171Z,74.66
2018-02-03T10:22:29.618Z,74.74
2018-02-03T10:24:57.078Z,69.58
2018-02-03T10:27:24.549Z,70.69
2018-02-03T10:29:52.025Z,71.40
2018-02-03T10:32:19.481Z,71.50
2018-02-03T10:34:46.961Z,72.39
2018-02-03T10:37:14.392Z,69.83
2018-02-03T10:39:41.834Z,70.76
2018-02-03T10:42:09.340Z,71.66
2018-02-03T10:44:36.777Z,69.91
2018-02-03T10:47:04.258Z,71.23
2018-02-03T10:49:31.908Z,71.12
2018-02-03T10:51:59.353Z,70.42
2018-02-03T10:54:26.925Z,69.51
2018-02-03T10:56:54.392Z,71.13
2018-02-03T10:59:21.832Z,70.78
2018-02-03T11:01:49.288Z,71.19
2018-02-03T11:04:16.725Z,70.13
2018-02-03T11:06:44.214Z,70.47
2018-02-03T11:09:11.644Z,70.26
2018-02-03T11:11:39.109Z,70.23
2018-02-03T11:14:06.566Z,69.09
2018-02-03T11:16:34.014Z,67.92
2018-02-03T11:19:01.494Z,69.01
2018-02-03T11:21:28.966Z,70.19
2018-02-03T11:23:56.409Z,70.23
2018-02-03T11:26:27.593Z,70.28
2018-02-03T11:28:55.513Z,69.33
2018-02-03T11:31:23.290Z,68.30
2018-02-03T11:33:50.741Z,68.42
2018-02-03T11:36:18.176Z,67.70
2018-02-03T11:38:45.642Z,69.27
2018-02-03T11:41:13.077Z,69.48
2018-02-03T11:43:40.811Z,70.14
2018-02-03T11:46:08.245Z,69.33
2018-02-03T11:48:35.684Z,70.80
2018-02-03T11:51:03.146Z,69.52
2018-02-03T11:53:30.601Z,69.97
2018-02-03T11:55:58.080Z,72.55
2018-02-03T11:58:25.627Z,74.03
2018-02-03T12:00:53.101Z,72.60
2018-02-03T12:03:20.552Z,71.24
2018-02-03T12:05:47.997Z,70.20
2018-02-03T12:08:15.781Z,68.55
2018-02-03T12:10:43.221Z,69.21
2018-02-03T12:13:10.665Z,68.71
2018-02-03T12:15:38.121Z,68.84
2018-02-03T12:18:05.555Z,68.36
2018-02-03T12:20:33.384Z,70.11
2018-02-03T12:23:00.827Z,70.01
2018-02-03T12:25:28.277Z,68.14
2018-02-03T12:27:55.740Z,68.86
2018-02-03T12:30:24.133Z,69.62
2018-02-03T12:32:52.302Z,69.94
2018-02-03T12:35:19.736Z,67.98
2018-02-03T12:37:47.228Z,68.60
2018-02-03T12:40:14.649Z,68.10
2018-02-03T12:42:42.089Z,67.98
2018-02-03T12:45:09.553Z,68.68
2018-02-03T12:47:37.010Z,68.00
2018-02-03T12:50:04.441Z,68.34
2018-02-03T12:52:31.960Z,67.91
2018-02-03T12:54:59.423Z,66.76
2018-02-03T12:57:27.528Z,66.79
2018-02-03T12:59:54.965Z,67.06
2018-02-03T13:02:22.397Z,67.95
2018-02-03T13:04:49.868Z,68.27
2018-02-03T13:07:17.309Z,68.80
2018-02-03T13:09:45.679Z,68.03
2018-02-03T13:12:13.125Z,67.57
2018-02-03T13:14:40.569Z,68.03
2018-02-03T13:17:08.033Z,68.81
2018-02-03T13:19:35.467Z,67.32
2018-02-03T13:22:03.087Z,66.87
2018-02-03T13:24:30.837Z,66.52
2018-02-03T13:26:58.295Z,64.71
2018-02-03T13:29:25.749Z,65.61
2018-02-03T13:31:53.217Z,66.50
2018-02-03T13:34:20.765Z,67.74
2018-02-03T13:36:48.194Z,68.52
2018-02-03T13:39:15.642Z,69.68
2018-02-03T13:41:43.118Z,67.51
2018-02-03T13:44:10.549Z,68.04
2018-02-03T13:46:37.997Z,66.97
2018-02-03T13:49:05.694Z,67.02
2018-02-03T13:51:33.132Z,66.07
2018-02-03T13:54:00.572Z,67.10
2018-02-03T13:56:28.281Z,67.47
2018-02-03T13:58:55.725Z,66.69
2018-02-03T14:01:23.162Z,65.23
2018-02-03T14:03:50.977Z,64.70
2018-02-03T14:06:18.420Z,64.84
2018-02-03T14:08:45.859Z,65.69
2018-02-03T14:11:13.623Z,64.90
2018-02-03T14:13:41.072Z,65.45
2018-02-03T14:16:08.505Z,65.36
2018-02-03T14:18:36.201Z,63.19
2018-02-03T14:21:03.634Z,64.27
2018-02-03T14:23:31.077Z,64.09
2018-02-03T14:26:04.289Z,64.22
2018-02-03T14:28:31.727Z,63.87
2018-02-03T14:30:59.166Z,64.56
2018-02-03T14:33:26.649Z,63.88
2018-02-03T14:35:54.082Z,64.00
2018-02-03T14:38:21.520Z,62.99
2018-02-03T14:40:48.972Z,63.90
2018-02-03T14:43:16.425Z,64.92
2018-02-03T14:45:43.862Z,65.17
2018-02-03T14:48:11.349Z,63.82
2018-02-03T14:50:38.780Z,63.94
2018-02-03T14:53:06.248Z,65.16
2018-02-03T14:55:34.092Z,65.23
2018-02-03T14:58:01.525Z,66.04
2018-02-03T15:00:28.960Z,64.88
2018-02-03T15:03:00.183Z,65.04
2018-02-03T15:05:27.654Z,65.02
2018-02-03T15:07:55.090Z,63.75
2018-02-03T15:10:22.630Z,64.05
2018-02-03T15:12:50.117Z,64.14
2018-02-03T15:15:17.559Z,63.74
2018-02-03T15:17:45.042Z,63.97
2018-02-03T15:20:12.488Z,64.01
2018-02-03T15:22:39.936Z,63.60
2018-02-03T15:25:07.409Z,63.60
2018-02-03T15:27:34.860Z,64.94
2018-02-03T15:30:02.297Z,65.94
2018-02-03T15:32:29.934Z,65.41
2018-02-03T15:34:57.368Z,66.28
2018-02-03T15:37:24.808Z,65.38
2018-02-03T15:39:52.273Z,65.25
2018-02-03T15:42:19.733Z,67.24
2018-02-03T15:44:47.173Z,65.24
2018-02-03T15:47:14.956Z,64.93
2018-02-03T15:49:42.409Z,65.95
2018-02-03T15:52:09.855Z,65.66
2018-02-03T15:54:37.325Z,65.11
2018-02-03T15:57:04.936Z,65.58
2018-02-03T15:59:32.382Z,65.28
2018-02-03T16:02:00.031Z,64.84
2018-02-03T16:04:27.479Z,66.98
2018-02-03T16:06:54.937Z,68.22
2018-02-03T16:09:22.706Z,68.56
2018-02-03T16:11:50.148Z,69.28
2018-02-03T16:14:17.593Z,69.29
2018-02-03T16:16:45.067Z,70.23
2018-02-03T16:19:12.538Z,70.31
2018-02-03T16:21:39.986Z,70.57
2018-02-03T16:24:07.541Z,70.69
2018-02-03T16:26:34.989Z,71.44
2018-02-03T16:29:02.429Z,72.47
2018-02-03T16:31:29.902Z,74.70
2018-02-03T16:33:57.341Z,74.58
2018-02-03T16:36:24.836Z,74.98
2018-02-03T16:38:53.446Z,73.83
2018-02-03T16:41:20.880Z,73.39
2018-02-03T16:43:48.319Z,73.55
2018-02-03T16:46:15.980Z,74.59
2018-02-03T16:48:43.449Z,73.40
2018-02-03T16:51:10.893Z,73.75
2018-02-03T16:53:38.416Z,71.68
2018-02-03T16:56:05.856Z,72.75
2018-02-03T16:58:33.288Z,73.43
2018-02-03T17:01:00.784Z,75.24
2018-02-03T17:03:28.253Z,74.74
2018-02-03T17:05:55.689Z,75.76
2018-02-03T17:08:23.393Z,75.87
2018-02-03T17:10:50.837Z,75.12
2018-02-03T17:13:18.277Z,76.37
2018-02-03T17:15:45.972Z,75.65
2018-02-03T17:18:13.410Z,75.38
2018-02-03T17:20:40.845Z,76.33
2018-02-03T17:23:08.425Z,75.35
2018-02-03T17:25:35.856Z,75.64
2018-02-03T17:28:03.299Z,76.89
2018-02-03T17:30:30.765Z,77.35
2018-02-03T17:32:58.197Z,77.79
2018-02-03T17:35:25.638Z,79.73
2018-02-03T17:37:58.833Z,79.83
2018-02-03T17:40:26.411Z,79.53
2018-02-03T17:42:53.842Z,80.54
2018-02-03T17:45:26.793Z,80.20
2018-02-03T17:47:54.229Z,80.01
2018-02-03T17:50:21.677Z,79.36
2018-02-03T17:52:49.157Z,78.64
2018-02-03T17:55:23.094Z,78.91
2018-02-03T17:57:50.850Z,78.59
2018-02-03T18:00:18.282Z,78.84
2018-02-03T18:02:45.720Z,78.61
2018-02-03T18:05:13.630Z,77.31
2018-02-03T18:07:41.072Z,78.40
2018-02-03T18:10:08.512Z,77.85
2018-02-03T18:12:35.985Z,77.70
2018-02-03T18:15:03.417Z,78.01
2018-02-03T18:17:30.858Z,78.13
2018-02-03T18:19:58.325Z,77.70
2018-02-03T18:22:25.767Z,78.37
2018-02-03T18:24:53.212Z,79.06
2018-02-03T18:27:20.853Z,79.34
2018-02-03T18:29:48.294Z,79.84
2018-02-03T18:32:15.732Z,79.93
2018-02-03T18:34:43.196Z,80.65
2018-02-03T18:37:10.629Z,80.29
2018-02-03T18:39:38.081Z,80.30
2018-02-03T18:42:05.556Z,81.25
2018-02-03T18:44:32.997Z,81.76
2018-02-03T18:47:00.434Z,82.10
2018-02-03T18:49:28.056Z,82.37
2018-02-03T18:51:55.485Z,82.27
2018-02-03T18:54:22.926Z,82.77
2018-02-03T18:56:50.385Z,82.70
2018-02-03T18:59:17.821Z,82.66
2018-02-03T19:01:45.456Z,83.02
2018-02-03T19:04:12.901Z,82.96
2018-02-03T19:06:40.337Z,83.53
2018-02-03T19:09:08.021Z,83.67
2018-02-03T19:11:35.457Z,83.81
2018-02-03T19:14:02.890Z,84.12
2018-02-03T19:16:30.853Z,84.67
2018-02-03T19:18:58.289Z,84.51
2018-02-03T19:21:25.742Z,84.47
2018-02-03T19:23:53.222Z,84.53
2018-02-03T19:26:20.657Z,84.53
2018-02-03T19:28:48.089Z,84.68
2018-02-03T19:31:15.565Z,84.84
2018-02-03T19:33:43.001Z,84.82
2018-02-03T19:36:10.433Z,86.00
2018-02-03T19:38:38.097Z,86.31
2018-02-03T19:41:05.564Z,85.88
2018-02-03T19:43:32.997Z,86.45
2018-02-03T19:46:00.785Z,86.02
2018-02-03T19:48:28.217Z,86.41
2018-02-03T19:50:55.652Z,86.26
2018-02-03T19:53:23.116Z,86.50
2018-02-03T19:55:50.559Z,85.89
2018-02-03T19:58:18.015Z,86.24
2018-02-03T20:00:45.463Z,85.53
2018-02-03T20:03:12.913Z,85.66
2018-02-03T20:05:40.368Z,85.58
2018-02-03T20:08:07.801Z,85.70
2018-02-03T20:10:35.261Z,85.46
2018-02-03T20:13:02.698Z,85.55
2018-02-03T20:15:30.137Z,85.70
2018-02-03T20:17:57.615Z,85.46
2018-02-03T20:20:25.059Z,85.81
2018-02-03T20:22:52.828Z,86.17
2018-02-03T20:25:20.261Z,86.05
2018-02-03T20:27:47.697Z,86.24
2018-02-03T20:30:15.168Z,85.84
2018-02-03T20:32:42.606Z,85.49
2018-02-03T20:35:10.189Z,85.25
2018-02-03T20:37:37.629Z,86.38
2018-02-03T20:40:05.856Z,85.99
2018-02-03T20:42:33.373Z,86.19
2018-02-03T20:45:00.825Z,86.54
2018-02-03T20:47:28.540Z,86.20
2018-02-03T20:49:55.993Z,86.06
2018-02-03T20:52:23.445Z,86.44
2018-02-03T20:54:50.901Z,85.89
2018-02-03T20:57:18.357Z,86.33
2018-02-03T20:59:45.839Z,86.32
2018-02-03T21:02:13.272Z,86.26
2018-02-03T21:04:40.709Z,86.47
2018-02-03T21:07:08.217Z,86.68
2018-02-03T21:09:35.671Z,86.59
2018-02-03T21:12:03.143Z,86.63
2018-02-03T21:14:30.577Z,86.79
2018-02-03T21:16:58.009Z,86.32
2018-02-03T21:19:25.476Z,86.29
2018-02-03T21:21:52.971Z,86.77
2018-02-03T21:24:20.673Z,87.20
2018-02-03T21:26:48.113Z,87.54
2018-02-03T21:29:15.553Z,87.85
2018-02-03T21:31:43.005Z,87.39
2018-02-03T21:34:10.440Z,87.69
2018-02-03T21:36:37.897Z,87.47
2018-02-03T21:39:05.329Z,87.45
2018-02-03T21:41:32.761Z,87.87
2018-02-03T21:44:00.219Z,87.62
2018-02-03T21:46:27.661Z,87.75
2018-02-03T21:48:55.273Z,87.63
2018-02-03T21:51:22.876Z,87.31
2018-02-03T21:53:50.321Z,87.82
2018-02-03T21:56:17.777Z,87.92
2018-02-03T21:58:45.204Z,87.85
2018-02-03T22:01:12.821Z,87.65
2018-02-03T22:03:40.260Z,88.06
2018-02-03T22:06:07.700Z,88.50
2018-02-03T22:08:35.156Z,88.21
2018-02-03T22:11:02.621Z,88.40
2018-02-03T22:13:30.100Z,88.08
2018-02-03T22:15:57.537Z,87.55
2018-02-03T22:18:24.977Z,88.15
2018-02-03T22:20:52.434Z,89.38
2018-02-03T22:23:19.875Z,88.67
2018-02-03T22:25:47.713Z,89.04
2018-02-03T22:28:15.157Z,88.61
2018-02-03T22:30:42.676Z,88.61
2018-02-03T22:33:10.130Z,88.73
2018-02-03T22:35:37.561Z,88.48
2018-02-03T22:38:05.021Z,88.43
2018-02-03T22:40:32.501Z,88.67
2018-02-03T22:42:59.932Z,88.60
2018-02-03T22:45:27.396Z,88.38
2018-02-03T22:47:54.839Z,88.78
2018-02-03T22:50:22.343Z,88.93
2018-02-03T22:52:49.781Z,88.81
2018-02-03T22:55:17.235Z,89.34
2018-02-03T22:57:44.704Z,90.27
2018-02-03T23:00:19.025Z,90.47
2018-02-03T23:02:52.615Z,90.66
2018-02-03T23:05:20.081Z,90.18
2018-02-03T23:07:47.893Z,89.42
2018-02-03T23:10:15.325Z,89.10
2018-02-03T23:12:42.773Z,89.03
2018-02-03T23:15:10.225Z,89.12
2018-02-03T23:17:37.666Z,88.78
2018-02-03T23:20:05.599Z,89.15
2018-02-03T23:22:33.033Z,89.10
2018-02-03T23:25:00.468Z,89.43
2018-02-03T23:27:27.921Z,89.42
2018-02-03T23:29:55.356Z,89.35
2018-02-03T23:32:22.820Z,89.09
2018-02-03T23:34:50.264Z,89.32
2018-02-03T23:37:17.702Z,89.34
2018-02-03T23:39:45.205Z,89.24
2018-02-03T23:42:12.641Z,89.18
2018-02-03T23:44:40.201Z,89.92
2018-02-03T23:47:07.805Z,90.09
2018-02-03T23:49:35.258Z,89.44
2018-02-03T23:52:02.714Z,89.85
2018-02-03T23:54:30.150Z,89.75
2018-02-03T23:56:58.030Z,89.95
2018-02-03T23:59:25.472Z,89.82
